Airport ID:K0A0
Update Time (UTC):01/12/2020 02:30
Wind Speed (Knots):1
Wind Direction (Magnetic):70
Temperature (°C):1.8
Dew Point (°C):-12
Humidity (%):35.9
Altimeter (inHg):30.23
Density Altitude (Feet):
Visibility (Miles):10
Clouds (Hundreds of feet):CLR
Present Weather:
METAR:METAR K0A0 010230Z AUTO 00000KT 10SM CLR 02/M12 A3023 RMK AO2

The data displayed is for advisory purposes only and is not to be used for flight planning or operations.